Terminal Aerodrome Forecast
Issued by NWS Bismarck, ND

Home | Current Version | Previous Version | Graphics & Text | Print | Product List | Glossary On
Versions: 1 2 3 4 5 6 7 8 9 10 11 12 13 14 15 16 17 18 19
816
FTUS43 KBIS 160736 AAC
TAFBIS
TAF AMD
KBIS 160736Z 1608/1706 33009KT P6SM OVC007
     FM160900 33004KT 3SM BR OVC005
     FM161200 33005KT 1SM BR OVC003
     FM161500 34006KT P6SM BKN010
     FM170300 VRB03KT P6SM SKC=

USA.gov is the U.S. government's official web portal to all federal, state and local government web resources and services.